sensor_id;sensor_type;location;lat;lon;timestamp;P1;durP1;ratioP1;P2;durP2;ratioP2
36009;SDS011;22076;52.182;5.404;2022-12-20T00:02:00;10.88;;;5.30;;
36009;SDS011;22076;52.182;5.404;2022-12-20T00:04:26;8.40;;;4.47;;
36009;SDS011;22076;52.182;5.404;2022-12-20T00:06:53;8.43;;;4.78;;
36009;SDS011;22076;52.182;5.404;2022-12-20T00:09:19;10.48;;;5.20;;
36009;SDS011;22076;52.182;5.404;2022-12-20T00:11:47;6.78;;;4.70;;
36009;SDS011;22076;52.182;5.404;2022-12-20T00:14:14;8.48;;;5.10;;
36009;SDS011;22076;52.182;5.404;2022-12-20T00:16:40;16.92;;;5.38;;
36009;SDS011;22076;52.182;5.404;2022-12-20T00:19:08;12.82;;;5.30;;
36009;SDS011;22076;52.182;5.404;2022-12-20T00:21:36;7.43;;;4.60;;
36009;SDS011;22076;52.182;5.404;2022-12-20T00:24:02;8.48;;;4.68;;
36009;SDS011;22076;52.182;5.404;2022-12-20T00:26:30;7.47;;;4.78;;
36009;SDS011;22076;52.182;5.404;2022-12-20T00:28:59;9.40;;;4.85;;
36009;SDS011;22076;52.182;5.404;2022-12-20T00:31:27;8.68;;;4.43;;
36009;SDS011;22076;52.182;5.404;2022-12-20T00:33:54;9.15;;;4.55;;
36009;SDS011;22076;52.182;5.404;2022-12-20T00:36:22;5.93;;;4.05;;
36009;SDS011;22076;52.182;5.404;2022-12-20T00:38:50;6.90;;;4.93;;
36009;SDS011;22076;52.182;5.404;2022-12-20T00:41:18;6.53;;;4.13;;
36009;SDS011;22076;52.182;5.404;2022-12-20T00:43:45;7.20;;;4.43;;
36009;SDS011;22076;52.182;5.404;2022-12-20T00:46:14;6.93;;;4.47;;
36009;SDS011;22076;52.182;5.404;2022-12-20T00:48:41;9.18;;;4.68;;
36009;SDS011;22076;52.182;5.404;2022-12-20T00:51:09;9.55;;;4.75;;
36009;SDS011;22076;52.182;5.404;2022-12-20T00:53:38;6.45;;;4.18;;
36009;SDS011;22076;52.182;5.404;2022-12-20T00:56:05;5.78;;;4.20;;
36009;SDS011;22076;52.182;5.404;2022-12-20T00:58:32;6.43;;;3.95;;
36009;SDS011;22076;52.182;5.404;2022-12-20T01:00:59;9.75;;;4.47;;
36009;SDS011;22076;52.182;5.404;2022-12-20T01:03:27;6.55;;;3.92;;
36009;SDS011;22076;52.182;5.404;2022-12-20T01:05:55;7.85;;;4.00;;
36009;SDS011;22076;52.182;5.404;2022-12-20T01:08:23;6.68;;;4.60;;
36009;SDS011;22076;52.182;5.404;2022-12-20T01:10:57;10.82;;;4.25;;
36009;SDS011;22076;52.182;5.404;2022-12-20T01:13:24;6.45;;;3.80;;
36009;SDS011;22076;52.182;5.404;2022-12-20T01:15:51;8.85;;;4.63;;
36009;SDS011;22076;52.182;5.404;2022-12-20T01:18:17;6.10;;;4.45;;
36009;SDS011;22076;52.182;5.404;2022-12-20T01:20:46;8.55;;;4.30;;
36009;SDS011;22076;52.182;5.404;2022-12-20T01:23:13;9.68;;;4.82;;
36009;SDS011;22076;52.182;5.404;2022-12-20T01:25:39;8.05;;;4.07;;
36009;SDS011;22076;52.182;5.404;2022-12-20T01:28:06;10.63;;;5.15;;
36009;SDS011;22076;52.182;5.404;2022-12-20T01:30:34;17.38;;;5.82;;
36009;SDS011;22076;52.182;5.404;2022-12-20T01:33:00;15.45;;;5.50;;
36009;SDS011;22076;52.182;5.404;2022-12-20T01:35:27;11.05;;;5.25;;
36009;SDS011;22076;52.182;5.404;2022-12-20T01:37:55;8.02;;;4.47;;
36009;SDS011;22076;52.182;5.404;2022-12-20T01:40:21;10.95;;;5.72;;
36009;SDS011;22076;52.182;5.404;2022-12-20T01:42:48;8.73;;;4.55;;
36009;SDS011;22076;52.182;5.404;2022-12-20T01:45:19;10.18;;;5.30;;
36009;SDS011;22076;52.182;5.404;2022-12-20T01:47:48;11.35;;;6.20;;
36009;SDS011;22076;52.182;5.404;2022-12-20T01:50:15;12.52;;;6.38;;
36009;SDS011;22076;52.182;5.404;2022-12-20T01:52:42;11.90;;;6.88;;
36009;SDS011;22076;52.182;5.404;2022-12-20T01:55:13;16.40;;;7.35;;
36009;SDS011;22076;52.182;5.404;2022-12-20T01:57:43;11.30;;;6.75;;
36009;SDS011;22076;52.182;5.404;2022-12-20T02:00:12;12.35;;;6.82;;
36009;SDS011;22076;52.182;5.404;2022-12-20T02:02:40;9.98;;;6.65;;
36009;SDS011;22076;52.182;5.404;2022-12-20T02:05:08;13.00;;;7.30;;
36009;SDS011;22076;52.182;5.404;2022-12-20T02:07:35;17.23;;;7.07;;
36009;SDS011;22076;52.182;5.404;2022-12-20T02:10:03;10.27;;;6.43;;
36009;SDS011;22076;52.182;5.404;2022-12-20T02:12:36;9.90;;;6.15;;
36009;SDS011;22076;52.182;5.404;2022-12-20T02:15:07;11.23;;;6.67;;
36009;SDS011;22076;52.182;5.404;2022-12-20T02:17:44;9.45;;;6.40;;
36009;SDS011;22076;52.182;5.404;2022-12-20T02:23:26;11.35;;;6.38;;
36009;SDS011;22076;52.182;5.404;2022-12-20T02:26:14;13.13;;;7.10;;
36009;SDS011;22076;52.182;5.404;2022-12-20T02:28:55;11.15;;;7.15;;
36009;SDS011;22076;52.182;5.404;2022-12-20T02:31:32;15.30;;;7.18;;
36009;SDS011;22076;52.182;5.404;2022-12-20T02:34:00;16.20;;;6.70;;
36009;SDS011;22076;52.182;5.404;2022-12-20T02:36:27;16.15;;;7.20;;
36009;SDS011;22076;52.182;5.404;2022-12-20T02:38:54;13.65;;;7.40;;
36009;SDS011;22076;52.182;5.404;2022-12-20T02:41:22;14.40;;;7.20;;
36009;SDS011;22076;52.182;5.404;2022-12-20T02:43:52;14.05;;;6.35;;
36009;SDS011;22076;52.182;5.404;2022-12-20T02:46:39;13.07;;;7.93;;
36009;SDS011;22076;52.182;5.404;2022-12-20T02:49:07;11.82;;;6.95;;
36009;SDS011;22076;52.182;5.404;2022-12-20T02:51:36;13.07;;;7.80;;
36009;SDS011;22076;52.182;5.404;2022-12-20T02:54:03;14.88;;;7.00;;
36009;SDS011;22076;52.182;5.404;2022-12-20T02:56:31;13.18;;;6.95;;
36009;SDS011;22076;52.182;5.404;2022-12-20T02:59:01;11.63;;;6.60;;
36009;SDS011;22076;52.182;5.404;2022-12-20T03:01:32;15.68;;;7.35;;
36009;SDS011;22076;52.182;5.404;2022-12-20T03:04:02;12.63;;;7.22;;
36009;SDS011;22076;52.182;5.404;2022-12-20T03:06:30;15.70;;;6.57;;
36009;SDS011;22076;52.182;5.404;2022-12-20T03:08:56;11.32;;;6.70;;
36009;SDS011;22076;52.182;5.404;2022-12-20T03:11:23;10.23;;;6.80;;
36009;SDS011;22076;52.182;5.404;2022-12-20T03:13:49;15.65;;;6.65;;
36009;SDS011;22076;52.182;5.404;2022-12-20T03:16:16;12.68;;;7.10;;
36009;SDS011;22076;52.182;5.404;2022-12-20T03:18:43;11.18;;;7.78;;
36009;SDS011;22076;52.182;5.404;2022-12-20T03:21:11;15.15;;;7.80;;
36009;SDS011;22076;52.182;5.404;2022-12-20T03:23:38;11.60;;;6.55;;
36009;SDS011;22076;52.182;5.404;2022-12-20T03:26:04;13.63;;;6.88;;
36009;SDS011;22076;52.182;5.404;2022-12-20T03:28:31;15.05;;;6.28;;
36009;SDS011;22076;52.182;5.404;2022-12-20T03:30:57;11.60;;;7.40;;
36009;SDS011;22076;52.182;5.404;2022-12-20T03:33:24;15.25;;;7.45;;
36009;SDS011;22076;52.182;5.404;2022-12-20T03:35:50;11.30;;;6.22;;
36009;SDS011;22076;52.182;5.404;2022-12-20T03:38:18;10.13;;;6.70;;
36009;SDS011;22076;52.182;5.404;2022-12-20T03:40:45;11.20;;;6.25;;
36009;SDS011;22076;52.182;5.404;2022-12-20T03:43:11;14.40;;;6.85;;
36009;SDS011;22076;52.182;5.404;2022-12-20T03:45:38;11.48;;;7.40;;
36009;SDS011;22076;52.182;5.404;2022-12-20T03:48:05;12.43;;;6.95;;
36009;SDS011;22076;52.182;5.404;2022-12-20T03:50:31;14.52;;;7.30;;
36009;SDS011;22076;52.182;5.404;2022-12-20T03:52:58;12.18;;;7.15;;
36009;SDS011;22076;52.182;5.404;2022-12-20T03:55:26;13.95;;;6.60;;
36009;SDS011;22076;52.182;5.404;2022-12-20T03:57:52;15.93;;;7.72;;
36009;SDS011;22076;52.182;5.404;2022-12-20T04:00:19;9.82;;;5.63;;
36009;SDS011;22076;52.182;5.404;2022-12-20T04:02:46;11.45;;;6.70;;
36009;SDS011;22076;52.182;5.404;2022-12-20T04:05:12;10.88;;;7.07;;
36009;SDS011;22076;52.182;5.404;2022-12-20T04:07:40;14.75;;;6.40;;
36009;SDS011;22076;52.182;5.404;2022-12-20T04:10:07;17.77;;;7.63;;
36009;SDS011;22076;52.182;5.404;2022-12-20T04:12:36;18.10;;;7.15;;
36009;SDS011;22076;52.182;5.404;2022-12-20T04:15:03;11.10;;;7.25;;
36009;SDS011;22076;52.182;5.404;2022-12-20T04:17:30;16.17;;;7.63;;
36009;SDS011;22076;52.182;5.404;2022-12-20T04:19:56;11.23;;;7.20;;
36009;SDS011;22076;52.182;5.404;2022-12-20T04:22:23;10.40;;;6.05;;
36009;SDS011;22076;52.182;5.404;2022-12-20T04:24:49;12.95;;;6.45;;
36009;SDS011;22076;52.182;5.404;2022-12-20T04:27:16;11.95;;;7.25;;
36009;SDS011;22076;52.182;5.404;2022-12-20T04:29:44;10.80;;;6.53;;
36009;SDS011;22076;52.182;5.404;2022-12-20T04:32:10;10.93;;;7.22;;
36009;SDS011;22076;52.182;5.404;2022-12-20T04:34:37;11.77;;;5.95;;
36009;SDS011;22076;52.182;5.404;2022-12-20T04:37:03;12.02;;;6.07;;
36009;SDS011;22076;52.182;5.404;2022-12-20T04:39:30;10.70;;;6.45;;
36009;SDS011;22076;52.182;5.404;2022-12-20T04:41:56;9.80;;;6.13;;
36009;SDS011;22076;52.182;5.404;2022-12-20T04:44:23;14.35;;;6.20;;
36009;SDS011;22076;52.182;5.404;2022-12-20T04:46:51;11.18;;;5.53;;
36009;SDS011;22076;52.182;5.404;2022-12-20T04:49:17;10.38;;;5.15;;
36009;SDS011;22076;52.182;5.404;2022-12-20T04:51:44;11.18;;;6.32;;
36009;SDS011;22076;52.182;5.404;2022-12-20T04:54:10;11.98;;;5.78;;
36009;SDS011;22076;52.182;5.404;2022-12-20T04:56:36;10.77;;;6.10;;
36009;SDS011;22076;52.182;5.404;2022-12-20T04:59:03;11.38;;;6.03;;
36009;SDS011;22076;52.182;5.404;2022-12-20T05:01:29;10.93;;;5.35;;
36009;SDS011;22076;52.182;5.404;2022-12-20T05:03:57;9.65;;;5.57;;
36009;SDS011;22076;52.182;5.404;2022-12-20T05:06:23;14.80;;;6.65;;
36009;SDS011;22076;52.182;5.404;2022-12-20T05:08:50;13.52;;;6.55;;
36009;SDS011;22076;52.182;5.404;2022-12-20T05:11:16;12.57;;;6.38;;
36009;SDS011;22076;52.182;5.404;2022-12-20T05:13:43;13.90;;;6.47;;
36009;SDS011;22076;52.182;5.404;2022-12-20T05:16:10;11.20;;;7.18;;
36009;SDS011;22076;52.182;5.404;2022-12-20T05:18:37;14.05;;;6.47;;
36009;SDS011;22076;52.182;5.404;2022-12-20T05:21:05;16.23;;;7.55;;
36009;SDS011;22076;52.182;5.404;2022-12-20T05:23:49;14.00;;;6.90;;
36009;SDS011;22076;52.182;5.404;2022-12-20T05:26:34;16.73;;;8.50;;
36009;SDS011;22076;52.182;5.404;2022-12-20T05:29:02;17.20;;;7.10;;
36009;SDS011;22076;52.182;5.404;2022-12-20T05:31:29;18.90;;;10.07;;
36009;SDS011;22076;52.182;5.404;2022-12-20T05:33:56;19.48;;;8.45;;
36009;SDS011;22076;52.182;5.404;2022-12-20T05:36:24;16.58;;;8.93;;
36009;SDS011;22076;52.182;5.404;2022-12-20T05:38:51;17.00;;;8.38;;
36009;SDS011;22076;52.182;5.404;2022-12-20T05:41:17;18.38;;;8.95;;
36009;SDS011;22076;52.182;5.404;2022-12-20T05:43:44;16.75;;;8.45;;
36009;SDS011;22076;52.182;5.404;2022-12-20T05:46:11;21.60;;;7.55;;
36009;SDS011;22076;52.182;5.404;2022-12-20T05:48:37;20.65;;;9.18;;
36009;SDS011;22076;52.182;5.404;2022-12-20T05:51:04;14.98;;;7.32;;
36009;SDS011;22076;52.182;5.404;2022-12-20T05:53:32;18.00;;;9.07;;
36009;SDS011;22076;52.182;5.404;2022-12-20T05:55:59;17.38;;;7.85;;
36009;SDS011;22076;52.182;5.404;2022-12-20T05:58:26;16.63;;;8.73;;
36009;SDS011;22076;52.182;5.404;2022-12-20T06:00:53;15.55;;;8.82;;
36009;SDS011;22076;52.182;5.404;2022-12-20T06:03:20;16.73;;;8.05;;
36009;SDS011;22076;52.182;5.404;2022-12-20T06:05:46;20.23;;;8.55;;
36009;SDS011;22076;52.182;5.404;2022-12-20T06:08:13;17.58;;;8.38;;
36009;SDS011;22076;52.182;5.404;2022-12-20T06:10:41;16.48;;;7.28;;
36009;SDS011;22076;52.182;5.404;2022-12-20T06:13:07;14.32;;;7.43;;
36009;SDS011;22076;52.182;5.404;2022-12-20T06:15:35;16.27;;;7.43;;
36009;SDS011;22076;52.182;5.404;2022-12-20T06:18:02;15.13;;;7.80;;
36009;SDS011;22076;52.182;5.404;2022-12-20T06:20:28;13.65;;;7.90;;
36009;SDS011;22076;52.182;5.404;2022-12-20T06:22:55;14.15;;;6.85;;
36009;SDS011;22076;52.182;5.404;2022-12-20T06:25:22;9.85;;;6.40;;
36009;SDS011;22076;52.182;5.404;2022-12-20T06:27:51;14.50;;;7.50;;
36009;SDS011;22076;52.182;5.404;2022-12-20T06:30:18;13.80;;;7.82;;
36009;SDS011;22076;52.182;5.404;2022-12-20T06:32:46;18.60;;;8.52;;
36009;SDS011;22076;52.182;5.404;2022-12-20T06:35:12;11.43;;;6.78;;
36009;SDS011;22076;52.182;5.404;2022-12-20T06:37:39;13.43;;;6.85;;
36009;SDS011;22076;52.182;5.404;2022-12-20T06:40:07;15.73;;;7.32;;
36009;SDS011;22076;52.182;5.404;2022-12-20T06:42:34;13.02;;;6.50;;
36009;SDS011;22076;52.182;5.404;2022-12-20T06:45:03;12.88;;;7.18;;
36009;SDS011;22076;52.182;5.404;2022-12-20T06:47:30;14.60;;;6.07;;
36009;SDS011;22076;52.182;5.404;2022-12-20T06:49:56;11.02;;;7.05;;
36009;SDS011;22076;52.182;5.404;2022-12-20T06:52:24;11.85;;;6.95;;
36009;SDS011;22076;52.182;5.404;2022-12-20T06:54:51;11.57;;;6.15;;
36009;SDS011;22076;52.182;5.404;2022-12-20T06:57:17;10.02;;;5.70;;
36009;SDS011;22076;52.182;5.404;2022-12-20T06:59:44;12.57;;;6.50;;
36009;SDS011;22076;52.182;5.404;2022-12-20T07:02:12;10.57;;;5.45;;
36009;SDS011;22076;52.182;5.404;2022-12-20T07:04:40;10.60;;;5.13;;
36009;SDS011;22076;52.182;5.404;2022-12-20T07:07:06;11.52;;;6.32;;
36009;SDS011;22076;52.182;5.404;2022-12-20T07:09:33;10.07;;;4.95;;
36009;SDS011;22076;52.182;5.404;2022-12-20T07:12:02;9.65;;;4.85;;
36009;SDS011;22076;52.182;5.404;2022-12-20T07:14:29;9.77;;;5.22;;
36009;SDS011;22076;52.182;5.404;2022-12-20T07:16:55;7.15;;;4.70;;
36009;SDS011;22076;52.182;5.404;2022-12-20T07:19:24;10.45;;;5.43;;
36009;SDS011;22076;52.182;5.404;2022-12-20T07:21:50;10.77;;;5.20;;
36009;SDS011;22076;52.182;5.404;2022-12-20T07:24:17;11.02;;;5.35;;
36009;SDS011;22076;52.182;5.404;2022-12-20T07:26:43;7.03;;;4.45;;
36009;SDS011;22076;52.182;5.404;2022-12-20T07:29:11;10.43;;;5.00;;
36009;SDS011;22076;52.182;5.404;2022-12-20T07:31:38;9.50;;;4.53;;
36009;SDS011;22076;52.182;5.404;2022-12-20T07:34:05;10.70;;;4.68;;
36009;SDS011;22076;52.182;5.404;2022-12-20T07:36:33;8.48;;;4.88;;
36009;SDS011;22076;52.182;5.404;2022-12-20T07:38:59;8.20;;;4.47;;
36009;SDS011;22076;52.182;5.404;2022-12-20T07:41:27;7.43;;;4.15;;
36009;SDS011;22076;52.182;5.404;2022-12-20T07:43:54;7.50;;;4.50;;
36009;SDS011;22076;52.182;5.404;2022-12-20T07:46:22;10.00;;;4.47;;
36009;SDS011;22076;52.182;5.404;2022-12-20T07:48:49;8.57;;;3.83;;
36009;SDS011;22076;52.182;5.404;2022-12-20T07:51:16;10.55;;;4.40;;
36009;SDS011;22076;52.182;5.404;2022-12-20T07:53:49;13.63;;;4.63;;
36009;SDS011;22076;52.182;5.404;2022-12-20T07:56:18;7.50;;;3.90;;
36009;SDS011;22076;52.182;5.404;2022-12-20T07:58:46;7.70;;;3.88;;
36009;SDS011;22076;52.182;5.404;2022-12-20T08:01:15;7.18;;;4.90;;
36009;SDS011;22076;52.182;5.404;2022-12-20T08:03:42;6.43;;;3.45;;
36009;SDS011;22076;52.182;5.404;2022-12-20T08:06:10;9.95;;;4.35;;
36009;SDS011;22076;52.182;5.404;2022-12-20T08:08:39;7.78;;;4.15;;
36009;SDS011;22076;52.182;5.404;2022-12-20T08:11:07;11.52;;;4.70;;
36009;SDS011;22076;52.182;5.404;2022-12-20T08:13:36;7.40;;;4.57;;
36009;SDS011;22076;52.182;5.404;2022-12-20T08:16:02;10.20;;;5.00;;
36009;SDS011;22076;52.182;5.404;2022-12-20T08:18:40;9.57;;;5.28;;
36009;SDS011;22076;52.182;5.404;2022-12-20T08:21:06;10.70;;;4.32;;
36009;SDS011;22076;52.182;5.404;2022-12-20T08:23:34;7.88;;;4.78;;
36009;SDS011;22076;52.182;5.404;2022-12-20T08:26:01;13.80;;;5.25;;
36009;SDS011;22076;52.182;5.404;2022-12-20T08:28:36;6.45;;;4.10;;
36009;SDS011;22076;52.182;5.404;2022-12-20T08:31:03;6.82;;;4.45;;
36009;SDS011;22076;52.182;5.404;2022-12-20T08:33:31;11.45;;;4.43;;
36009;SDS011;22076;52.182;5.404;2022-12-20T08:35:58;11.68;;;4.82;;
36009;SDS011;22076;52.182;5.404;2022-12-20T08:38:25;8.93;;;4.68;;
36009;SDS011;22076;52.182;5.404;2022-12-20T08:40:52;10.07;;;4.90;;
36009;SDS011;22076;52.182;5.404;2022-12-20T08:43:19;9.80;;;4.60;;
36009;SDS011;22076;52.182;5.404;2022-12-20T08:45:51;12.05;;;4.65;;
36009;SDS011;22076;52.182;5.404;2022-12-20T08:48:19;9.77;;;4.65;;
36009;SDS011;22076;52.182;5.404;2022-12-20T08:50:46;8.45;;;4.32;;
36009;SDS011;22076;52.182;5.404;2022-12-20T08:53:13;7.43;;;4.32;;
36009;SDS011;22076;52.182;5.404;2022-12-20T08:55:39;8.68;;;4.38;;
36009;SDS011;22076;52.182;5.404;2022-12-20T08:58:07;9.20;;;4.43;;
36009;SDS011;22076;52.182;5.404;2022-12-20T09:00:34;9.23;;;4.43;;
36009;SDS011;22076;52.182;5.404;2022-12-20T09:03:02;9.10;;;4.45;;
36009;SDS011;22076;52.182;5.404;2022-12-20T09:05:29;11.82;;;5.47;;
36009;SDS011;22076;52.182;5.404;2022-12-20T09:07:56;9.05;;;4.45;;
36009;SDS011;22076;52.182;5.404;2022-12-20T09:10:22;14.20;;;5.63;;
36009;SDS011;22076;52.182;5.404;2022-12-20T09:12:49;10.32;;;4.70;;
36009;SDS011;22076;52.182;5.404;2022-12-20T09:15:16;8.10;;;4.38;;
36009;SDS011;22076;52.182;5.404;2022-12-20T09:17:42;6.07;;;4.10;;
36009;SDS011;22076;52.182;5.404;2022-12-20T09:20:12;9.02;;;4.50;;
36009;SDS011;22076;52.182;5.404;2022-12-20T09:22:39;9.25;;;5.45;;
36009;SDS011;22076;52.182;5.404;2022-12-20T09:25:06;8.77;;;5.55;;
36009;SDS011;22076;52.182;5.404;2022-12-20T09:27:34;12.15;;;5.85;;
36009;SDS011;22076;52.182;5.404;2022-12-20T09:30:00;15.70;;;5.47;;
36009;SDS011;22076;52.182;5.404;2022-12-20T09:32:27;13.50;;;6.03;;
36009;SDS011;22076;52.182;5.404;2022-12-20T09:34:54;11.25;;;5.50;;
36009;SDS011;22076;52.182;5.404;2022-12-20T09:37:22;11.75;;;4.90;;
36009;SDS011;22076;52.182;5.404;2022-12-20T09:39:48;11.38;;;5.10;;
36009;SDS011;22076;52.182;5.404;2022-12-20T09:42:23;11.88;;;5.65;;
36009;SDS011;22076;52.182;5.404;2022-12-20T09:44:51;14.57;;;5.70;;
36009;SDS011;22076;52.182;5.404;2022-12-20T09:47:18;8.70;;;4.97;;
36009;SDS011;22076;52.182;5.404;2022-12-20T09:49:47;12.77;;;6.20;;
36009;SDS011;22076;52.182;5.404;2022-12-20T09:52:31;13.85;;;5.72;;
36009;SDS011;22076;52.182;5.404;2022-12-20T09:55:08;11.30;;;5.70;;
36009;SDS011;22076;52.182;5.404;2022-12-20T09:57:45;9.07;;;5.35;;
36009;SDS011;22076;52.182;5.404;2022-12-20T10:00:17;16.40;;;6.60;;
36009;SDS011;22076;52.182;5.404;2022-12-20T10:02:45;14.93;;;6.55;;
36009;SDS011;22076;52.182;5.404;2022-12-20T10:05:12;16.30;;;6.72;;
36009;SDS011;22076;52.182;5.404;2022-12-20T10:07:44;13.75;;;5.95;;
36009;SDS011;22076;52.182;5.404;2022-12-20T10:13:10;14.35;;;5.75;;
36009;SDS011;22076;52.182;5.404;2022-12-20T10:15:44;10.20;;;5.50;;
36009;SDS011;22076;52.182;5.404;2022-12-20T10:18:19;12.43;;;6.88;;
36009;SDS011;22076;52.182;5.404;2022-12-20T10:20:54;12.65;;;5.70;;
36009;SDS011;22076;52.182;5.404;2022-12-20T10:23:27;13.07;;;6.57;;
36009;SDS011;22076;52.182;5.404;2022-12-20T10:25:56;11.68;;;6.28;;
36009;SDS011;22076;52.182;5.404;2022-12-20T10:28:25;11.07;;;6.25;;
36009;SDS011;22076;52.182;5.404;2022-12-20T10:30:53;14.90;;;7.40;;
36009;SDS011;22076;52.182;5.404;2022-12-20T10:33:21;16.35;;;6.38;;
36009;SDS011;22076;52.182;5.404;2022-12-20T10:35:49;11.70;;;6.72;;
36009;SDS011;22076;52.182;5.404;2022-12-20T10:38:16;10.82;;;6.55;;
36009;SDS011;22076;52.182;5.404;2022-12-20T10:40:45;12.63;;;6.22;;
36009;SDS011;22076;52.182;5.404;2022-12-20T10:43:14;12.10;;;7.15;;
36009;SDS011;22076;52.182;5.404;2022-12-20T10:45:41;13.23;;;7.97;;
36009;SDS011;22076;52.182;5.404;2022-12-20T10:48:21;15.35;;;7.00;;
36009;SDS011;22076;52.182;5.404;2022-12-20T10:50:54;14.02;;;8.00;;
36009;SDS011;22076;52.182;5.404;2022-12-20T10:53:22;12.02;;;6.90;;
36009;SDS011;22076;52.182;5.404;2022-12-20T10:55:53;20.05;;;7.80;;
36009;SDS011;22076;52.182;5.404;2022-12-20T10:58:27;19.05;;;8.68;;
36009;SDS011;22076;52.182;5.404;2022-12-20T11:01:10;22.67;;;8.27;;
36009;SDS011;22076;52.182;5.404;2022-12-20T11:03:49;13.02;;;8.18;;
36009;SDS011;22076;52.182;5.404;2022-12-20T11:06:18;15.63;;;7.55;;
36009;SDS011;22076;52.182;5.404;2022-12-20T11:08:46;17.90;;;8.82;;
36009;SDS011;22076;52.182;5.404;2022-12-20T11:11:16;14.00;;;8.75;;
36009;SDS011;22076;52.182;5.404;2022-12-20T11:13:44;19.67;;;7.82;;
36009;SDS011;22076;52.182;5.404;2022-12-20T11:16:21;12.20;;;7.22;;
36009;SDS011;22076;52.182;5.404;2022-12-20T11:18:50;19.98;;;8.65;;
36009;SDS011;22076;52.182;5.404;2022-12-20T11:21:24;12.50;;;7.27;;
36009;SDS011;22076;52.182;5.404;2022-12-20T11:23:56;16.60;;;10.05;;
36009;SDS011;22076;52.182;5.404;2022-12-20T11:26:33;16.58;;;8.32;;
36009;SDS011;22076;52.182;5.404;2022-12-20T11:29:09;14.05;;;7.60;;
36009;SDS011;22076;52.182;5.404;2022-12-20T11:31:47;20.23;;;9.43;;
36009;SDS011;22076;52.182;5.404;2022-12-20T11:34:22;18.20;;;8.20;;
36009;SDS011;22076;52.182;5.404;2022-12-20T11:37:08;14.23;;;9.23;;
36009;SDS011;22076;52.182;5.404;2022-12-20T11:39:45;19.45;;;9.38;;
36009;SDS011;22076;52.182;5.404;2022-12-20T11:42:19;12.90;;;8.38;;
36009;SDS011;22076;52.182;5.404;2022-12-20T11:44:52;14.60;;;8.55;;
36009;SDS011;22076;52.182;5.404;2022-12-20T11:47:29;20.27;;;12.07;;
36009;SDS011;22076;52.182;5.404;2022-12-20T11:50:18;15.52;;;8.98;;
36009;SDS011;22076;52.182;5.404;2022-12-20T11:55:28;19.67;;;9.88;;
36009;SDS011;22076;52.182;5.404;2022-12-20T11:58:00;18.85;;;9.93;;
36009;SDS011;22076;52.182;5.404;2022-12-20T12:00:29;17.35;;;9.80;;
36009;SDS011;22076;52.182;5.404;2022-12-20T12:03:00;25.83;;;12.52;;
36009;SDS011;22076;52.182;5.404;2022-12-20T12:05:38;17.00;;;9.98;;
36009;SDS011;22076;52.182;5.404;2022-12-20T12:08:09;21.17;;;10.80;;
36009;SDS011;22076;52.182;5.404;2022-12-20T12:10:39;16.77;;;8.35;;
36009;SDS011;22076;52.182;5.404;2022-12-20T12:13:10;19.05;;;10.20;;
36009;SDS011;22076;52.182;5.404;2022-12-20T12:15:45;16.13;;;9.98;;
36009;SDS011;22076;52.182;5.404;2022-12-20T12:18:15;12.98;;;8.57;;
36009;SDS011;22076;52.182;5.404;2022-12-20T12:20:46;21.40;;;11.07;;
36009;SDS011;22076;52.182;5.404;2022-12-20T12:23:17;18.15;;;8.95;;
36009;SDS011;22076;52.182;5.404;2022-12-20T12:25:46;19.05;;;11.15;;
36009;SDS011;22076;52.182;5.404;2022-12-20T12:28:14;24.90;;;11.95;;
36009;SDS011;22076;52.182;5.404;2022-12-20T12:30:43;14.40;;;9.10;;
36009;SDS011;22076;52.182;5.404;2022-12-20T12:33:13;16.60;;;10.15;;
36009;SDS011;22076;52.182;5.404;2022-12-20T12:35:46;18.67;;;11.65;;
36009;SDS011;22076;52.182;5.404;2022-12-20T12:44:33;18.27;;;10.60;;
36009;SDS011;22076;52.182;5.404;2022-12-20T12:47:05;13.18;;;9.73;;
36009;SDS011;22076;52.182;5.404;2022-12-20T12:49:36;13.45;;;9.65;;
36009;SDS011;22076;52.182;5.404;2022-12-20T12:52:04;14.95;;;8.07;;
36009;SDS011;22076;52.182;5.404;2022-12-20T12:54:34;21.40;;;11.02;;
36009;SDS011;22076;52.182;5.404;2022-12-20T12:57:02;14.63;;;9.18;;
36009;SDS011;22076;52.182;5.404;2022-12-20T12:59:44;18.15;;;10.25;;
36009;SDS011;22076;52.182;5.404;2022-12-20T13:02:24;16.27;;;10.35;;
36009;SDS011;22076;52.182;5.404;2022-12-20T13:05:24;20.92;;;12.82;;
36009;SDS011;22076;52.182;5.404;2022-12-20T13:08:12;15.05;;;11.05;;
36009;SDS011;22076;52.182;5.404;2022-12-20T13:13:37;14.65;;;10.13;;
36009;SDS011;22076;52.182;5.404;2022-12-20T13:16:09;11.23;;;7.47;;
36009;SDS011;22076;52.182;5.404;2022-12-20T13:18:37;17.92;;;12.63;;
36009;SDS011;22076;52.182;5.404;2022-12-20T13:27:15;17.73;;;11.40;;
36009;SDS011;22076;52.182;5.404;2022-12-20T13:29:50;16.27;;;10.35;;
36009;SDS011;22076;52.182;5.404;2022-12-20T13:41:20;13.50;;;9.53;;
36009;SDS011;22076;52.182;5.404;2022-12-20T13:43:51;16.30;;;10.27;;
36009;SDS011;22076;52.182;5.404;2022-12-20T13:46:19;22.77;;;15.68;;
36009;SDS011;22076;52.182;5.404;2022-12-20T13:49:00;16.02;;;10.30;;
36009;SDS011;22076;52.182;5.404;2022-12-20T13:51:29;17.75;;;11.73;;
36009;SDS011;22076;52.182;5.404;2022-12-20T13:53:59;17.40;;;11.70;;
36009;SDS011;22076;52.182;5.404;2022-12-20T13:56:32;19.95;;;11.93;;
36009;SDS011;22076;52.182;5.404;2022-12-20T13:59:07;12.27;;;9.27;;
36009;SDS011;22076;52.182;5.404;2022-12-20T14:01:54;14.10;;;9.55;;
36009;SDS011;22076;52.182;5.404;2022-12-20T14:04:26;17.20;;;11.07;;
36009;SDS011;22076;52.182;5.404;2022-12-20T14:07:04;13.68;;;9.77;;
36009;SDS011;22076;52.182;5.404;2022-12-20T14:09:34;12.63;;;9.20;;
36009;SDS011;22076;52.182;5.404;2022-12-20T14:12:18;15.25;;;10.73;;
36009;SDS011;22076;52.182;5.404;2022-12-20T14:17:22;16.02;;;11.30;;
36009;SDS011;22076;52.182;5.404;2022-12-20T14:20:03;17.13;;;9.98;;
36009;SDS011;22076;52.182;5.404;2022-12-20T14:22:33;18.80;;;11.27;;
36009;SDS011;22076;52.182;5.404;2022-12-20T14:25:10;16.17;;;12.32;;
36009;SDS011;22076;52.182;5.404;2022-12-20T14:27:42;15.40;;;11.70;;
36009;SDS011;22076;52.182;5.404;2022-12-20T14:32:56;17.40;;;11.48;;
36009;SDS011;22076;52.182;5.404;2022-12-20T14:35:31;15.50;;;9.97;;
36009;SDS011;22076;52.182;5.404;2022-12-20T14:37:58;15.88;;;11.10;;
36009;SDS011;22076;52.182;5.404;2022-12-20T14:40:28;15.05;;;10.40;;
36009;SDS011;22076;52.182;5.404;2022-12-20T14:42:56;18.48;;;13.45;;
36009;SDS011;22076;52.182;5.404;2022-12-20T14:45:29;15.48;;;11.50;;
36009;SDS011;22076;52.182;5.404;2022-12-20T14:47:57;14.52;;;10.65;;
36009;SDS011;22076;52.182;5.404;2022-12-20T14:50:28;16.92;;;10.27;;
36009;SDS011;22076;52.182;5.404;2022-12-20T14:53:01;18.00;;;12.55;;
36009;SDS011;22076;52.182;5.404;2022-12-20T14:55:31;18.15;;;13.43;;
36009;SDS011;22076;52.182;5.404;2022-12-20T14:58:20;17.15;;;12.63;;
36009;SDS011;22076;52.182;5.404;2022-12-20T15:00:59;16.67;;;11.88;;
36009;SDS011;22076;52.182;5.404;2022-12-20T15:03:27;18.73;;;13.20;;
36009;SDS011;22076;52.182;5.404;2022-12-20T15:05:57;21.70;;;13.50;;
36009;SDS011;22076;52.182;5.404;2022-12-20T15:08:36;24.65;;;13.55;;
36009;SDS011;22076;52.182;5.404;2022-12-20T15:11:10;25.98;;;15.45;;
36009;SDS011;22076;52.182;5.404;2022-12-20T15:13:50;23.25;;;15.15;;
36009;SDS011;22076;52.182;5.404;2022-12-20T15:16:25;23.10;;;14.75;;
36009;SDS011;22076;52.182;5.404;2022-12-20T15:19:12;27.73;;;16.38;;
36009;SDS011;22076;52.182;5.404;2022-12-20T15:21:39;29.25;;;17.02;;
36009;SDS011;22076;52.182;5.404;2022-12-20T15:24:08;21.58;;;14.85;;
36009;SDS011;22076;52.182;5.404;2022-12-20T15:26:45;24.65;;;16.17;;
36009;SDS011;22076;52.182;5.404;2022-12-20T15:29:14;24.17;;;14.52;;